South Coffeyville, Oklahoma
Current Conditions -  °F | °C
As of 3:52 AM on Friday 24 Oct 2014 (Local Time) from KCFV Reporting Station
Scattered Clouds Scattered Clouds  
Wind Chill: 54°   Ceiling: Unl
Heat Index: 54°   Visibility: 7mi
Dew Point: 52°   Wind: 5mph
Humidity: 93%   Direction: 150°SSE
Pressure: 30.1"   Gusts: NA
Location:  36.99°N, 95.62°W
Report Text: KCFV 240852Z AUTO 15004KT 7SM SCT050 12/11 A3010 RMK AO2 SLP190 T01220111 58002
Loading
Personal Weather Stations






























Interactive Weather Map
Tropical Storm Tracking
New forecast layout! Learn more

10-Day Weather Forecast

Advertisements
Track Severe Weather on mobile